Alpena, MI

1:38 PM EDT on August 30, 2016 (GMT -0400)
APRSWXNET | | Change Station

Elev 593 ft 45.05 °N, 83.45 °W | Updated 19 minutes ago

Overcast
Overcast
86 °F
Feels Like 92 °F
N
5
Wind Variable Wind from NNW
Gusts 8.0 mph

Today
High -- | Low -- °F
--% Chance of Precip.
Yesterday
High -- | Low -- °F
Precip. -- in
Pressure 30.04 in
Visibility 10.0 miles
Clouds Scattered Clouds 3500 ft
Mostly Cloudy 4800 ft
Overcast 7000 ft
Heat Index 92 °F
Dew Point 72 °F
Humidity 63%
Rainfall in
Snow Depth Not available.
6:54 AM 8:13 PM
Waning Crescent, 3% visible
SPECI KAPN 301734Z AUTO 24008KT 210V300 10SM TS SCT035 BKN048 OVC070 29/19 A3004 RMK AO2 LTG DSNT E AND SW TSB28 T02940194
Pressure 30.04 in
Visibility 10.0 miles
Clouds Scattered Clouds 3500 ft
Mostly Cloudy 4800 ft
Overcast 7000 ft
Heat Index 92 °F
Dew Point 72 °F
Humidity 63%
Rainfall in
Snow Depth Not available.
6:54 AM 8:13 PM
Waning Crescent, 3% visible
SPECI KAPN 301734Z AUTO 24008KT 210V300 10SM TS SCT035 BKN048 OVC070 29/19 A3004 RMK AO2 LTG DSNT E AND SW TSB28 T02940194

10-Day Weather Forecast

Almanac

Astronomy

Aug. 30, 2016 Rise Set
Actual Time
Civil Twilight
Nautical Twilight
Astronomical Twilight
Moon
Length of Visible Light
Length of Day
Tomorrow will be .
, % of the Moon is Illuminated

Today's Extremes

State Highs State Lows

Community

WunderPhotos

Upload Photos

1,935,853 photos uploaded!

WunderBlog® & News

Nearby

Air Quality

  Air Quality AQ Index Pollutant
Not available.

Snow Depth

Station Depth Elevation

Earthquake Activity

City Distance Mag. Time & Date
Minimum magnitude displayed is 2.5.

Coastal Water Temperatures

Place Temperature

Stations

Nearby Weather Stations

Station Location Temp. Windchill Dew Point Humidity Wind Precip. Elev Updated Type
                   

Watches & Warnings

There are currently no watches in effect.